Airfield :
LOGIN :

Register | Disclaimer

   EN    FR    IT 

 










Legend :    VFR   Marginal VFR   IFR   Intensive IFR   Very Intensive IFR
Visi :
Ceiling :
>= 8 km
>= 3000ft
5 to 8 km
1000 to 3000 ft
1500m to 5 km
500 to 1000 ft
800 to 1500m
200 to 500 ft
< 800m
< 200 ft
Symbols :   Thunderstorms  Fog  Heavy snow  Heavy precipitations  Wind > 20 kt
SIGMETs :     Misc.  Thunderstorms  Icing  Turbulence  Mountain Waves  Volcanic Ashes






- Airport Elevation : 82 ft
- IATA code : AAR


EKAH - Aarhus Tirstrup

CURRENT METAR :
  • 170550Z AUTO 33008KT 3500 DZ BR BKN004/// 12/12 Q1012

EXPIRED METARs :
  • 170520Z AUTO 32008KT 2900 -RA BKN004/// 12/11 Q1012
  • 170450Z AUTO 33008KT 4400 -RA BR BKN004/// 12/11 Q1012
  • 170420Z AUTO 33008KT 4800 DZ BR BKN007/// 12/11 Q1012
  • 170350Z AUTO 33009KT 300V360 4700 BR BKN008/// 12/11 Q1012
  • 170320Z AUTO 33009KT 9999 OVC006/// 12/11 Q1012

TAF TAF EKAH
Valid from the 17 at 06:00 until the 18 at 06:00 UTC


170509Z 1706/1806 35008KT 9999 SCT008 BKN015
TEMPO 1706/1715 3000 -RADZ BR BKN004
TEMPO 1715/1806 BKN012



MET'MAP, your aeronautical weather chart ! - Copyright ORBIFLY December 2007 - Disclaimer

ORBIFLY MET'MAP TEAM :

Programming & Development : Alexandra Zaïnal
Concept & original design : Baudouin d'Aumeries
Assistance for programming : Marc-Olivier Méhu
Technical & hardware support : Manuel Goepfert

Contact : metmap@orbifly.com




SOURCES & CREDITS :

   NOAA